sensor_id;sensor_type;location;lat;lon;timestamp;P1;durP1;ratioP1;P2;durP2;ratioP2
71475;SDS011;59286;59.274;17.974;2023-06-04T00:01:05;1.40;;;1.27;;
71475;SDS011;59286;59.274;17.974;2023-06-04T00:03:30;2.38;;;1.50;;
71475;SDS011;59286;59.274;17.974;2023-06-04T00:05:56;3.28;;;1.40;;
71475;SDS011;59286;59.274;17.974;2023-06-04T00:08:22;1.70;;;1.17;;
71475;SDS011;59286;59.274;17.974;2023-06-04T00:10:47;2.00;;;1.35;;
71475;SDS011;59286;59.274;17.974;2023-06-04T00:13:13;1.77;;;1.17;;
71475;SDS011;59286;59.274;17.974;2023-06-04T00:15:38;1.58;;;1.35;;
71475;SDS011;59286;59.274;17.974;2023-06-04T00:18:03;2.05;;;1.30;;
71475;SDS011;59286;59.274;17.974;2023-06-04T00:20:29;2.97;;;1.27;;
71475;SDS011;59286;59.274;17.974;2023-06-04T00:22:54;2.22;;;1.20;;
71475;SDS011;59286;59.274;17.974;2023-06-04T00:25:20;3.03;;;1.30;;
71475;SDS011;59286;59.274;17.974;2023-06-04T00:27:45;1.60;;;1.50;;
71475;SDS011;59286;59.274;17.974;2023-06-04T00:30:10;3.10;;;1.55;;
71475;SDS011;59286;59.274;17.974;2023-06-04T00:32:36;2.83;;;1.83;;
71475;SDS011;59286;59.274;17.974;2023-06-04T00:35:02;2.95;;;1.48;;
71475;SDS011;59286;59.274;17.974;2023-06-04T00:37:28;4.50;;;1.90;;
71475;SDS011;59286;59.274;17.974;2023-06-04T00:39:54;5.50;;;1.60;;
71475;SDS011;59286;59.274;17.974;2023-06-04T00:42:19;1.67;;;1.33;;
71475;SDS011;59286;59.274;17.974;2023-06-04T00:44:45;4.22;;;1.30;;
71475;SDS011;59286;59.274;17.974;2023-06-04T00:47:14;3.90;;;1.23;;
71475;SDS011;59286;59.274;17.974;2023-06-04T00:49:40;2.45;;;1.33;;
71475;SDS011;59286;59.274;17.974;2023-06-04T00:52:09;2.83;;;1.50;;
71475;SDS011;59286;59.274;17.974;2023-06-04T00:54:35;2.33;;;1.20;;
71475;SDS011;59286;59.274;17.974;2023-06-04T00:57:03;2.70;;;1.17;;
71475;SDS011;59286;59.274;17.974;2023-06-04T00:59:29;1.27;;;1.00;;
71475;SDS011;59286;59.274;17.974;2023-06-04T01:04:36;2.95;;;1.05;;
71475;SDS011;59286;59.274;17.974;2023-06-04T01:07:05;1.55;;;0.93;;
71475;SDS011;59286;59.274;17.974;2023-06-04T01:09:33;1.25;;;1.00;;
71475;SDS011;59286;59.274;17.974;2023-06-04T01:12:03;3.13;;;1.10;;
71475;SDS011;59286;59.274;17.974;2023-06-04T01:14:29;1.50;;;1.15;;
71475;SDS011;59286;59.274;17.974;2023-06-04T01:16:58;2.63;;;1.10;;
71475;SDS011;59286;59.274;17.974;2023-06-04T01:25:25;2.55;;;1.20;;
71475;SDS011;59286;59.274;17.974;2023-06-04T01:27:54;2.97;;;1.27;;
71475;SDS011;59286;59.274;17.974;2023-06-04T01:30:28;4.82;;;1.10;;
71475;SDS011;59286;59.274;17.974;2023-06-04T01:32:55;2.90;;;1.00;;
71475;SDS011;59286;59.274;17.974;2023-06-04T01:35:21;4.68;;;1.10;;
71475;SDS011;59286;59.274;17.974;2023-06-04T01:37:47;1.50;;;0.98;;
71475;SDS011;59286;59.274;17.974;2023-06-04T01:40:13;1.42;;;1.10;;
71475;SDS011;59286;59.274;17.974;2023-06-04T01:42:40;2.95;;;1.08;;
71475;SDS011;59286;59.274;17.974;2023-06-04T01:45:08;3.38;;;0.95;;
71475;SDS011;59286;59.274;17.974;2023-06-04T01:47:34;1.95;;;0.90;;
71475;SDS011;59286;59.274;17.974;2023-06-04T01:50:00;1.77;;;0.98;;
71475;SDS011;59286;59.274;17.974;2023-06-04T01:52:30;1.35;;;0.77;;
71475;SDS011;59286;59.274;17.974;2023-06-04T01:54:55;2.15;;;0.90;;
71475;SDS011;59286;59.274;17.974;2023-06-04T01:57:21;2.70;;;0.80;;
71475;SDS011;59286;59.274;17.974;2023-06-04T01:59:47;3.90;;;1.02;;
71475;SDS011;59286;59.274;17.974;2023-06-04T02:02:13;1.63;;;1.00;;
71475;SDS011;59286;59.274;17.974;2023-06-04T02:04:39;1.55;;;1.02;;
71475;SDS011;59286;59.274;17.974;2023-06-04T02:07:07;1.83;;;0.90;;
71475;SDS011;59286;59.274;17.974;2023-06-04T02:09:33;2.45;;;0.90;;
71475;SDS011;59286;59.274;17.974;2023-06-04T02:11:59;2.42;;;0.98;;
71475;SDS011;59286;59.274;17.974;2023-06-04T02:14:25;2.17;;;1.00;;
71475;SDS011;59286;59.274;17.974;2023-06-04T02:16:50;1.30;;;0.75;;
71475;SDS011;59286;59.274;17.974;2023-06-04T02:19:16;1.23;;;0.90;;
71475;SDS011;59286;59.274;17.974;2023-06-04T02:21:43;1.17;;;0.90;;
71475;SDS011;59286;59.274;17.974;2023-06-04T02:24:09;1.42;;;1.00;;
71475;SDS011;59286;59.274;17.974;2023-06-04T02:26:34;1.83;;;1.00;;
71475;SDS011;59286;59.274;17.974;2023-06-04T02:29:00;2.47;;;1.08;;
71475;SDS011;59286;59.274;17.974;2023-06-04T02:31:26;3.88;;;1.20;;
71475;SDS011;59286;59.274;17.974;2023-06-04T02:33:51;2.33;;;1.35;;
71475;SDS011;59286;59.274;17.974;2023-06-04T02:36:16;2.67;;;1.10;;
71475;SDS011;59286;59.274;17.974;2023-06-04T02:38:42;2.60;;;1.42;;
71475;SDS011;59286;59.274;17.974;2023-06-04T02:41:08;4.50;;;1.30;;
71475;SDS011;59286;59.274;17.974;2023-06-04T02:43:33;2.03;;;1.40;;
71475;SDS011;59286;59.274;17.974;2023-06-04T02:45:58;3.25;;;1.00;;
71475;SDS011;59286;59.274;17.974;2023-06-04T02:48:24;0.55;;;0.50;;
71475;SDS011;59286;59.274;17.974;2023-06-04T02:50:49;1.00;;;0.50;;
71475;SDS011;59286;59.274;17.974;2023-06-04T02:53:14;0.90;;;0.60;;
71475;SDS011;59286;59.274;17.974;2023-06-04T02:55:40;1.02;;;0.60;;
71475;SDS011;59286;59.274;17.974;2023-06-04T02:58:06;0.50;;;0.40;;
71475;SDS011;59286;59.274;17.974;2023-06-04T03:00:33;2.28;;;0.50;;
71475;SDS011;59286;59.274;17.974;2023-06-04T03:02:59;0.88;;;0.50;;
71475;SDS011;59286;59.274;17.974;2023-06-04T03:05:26;3.30;;;0.45;;
71475;SDS011;59286;59.274;17.974;2023-06-04T03:07:52;0.63;;;0.43;;
71475;SDS011;59286;59.274;17.974;2023-06-04T03:10:18;0.43;;;0.40;;
71475;SDS011;59286;59.274;17.974;2023-06-04T03:12:44;0.80;;;0.50;;
71475;SDS011;59286;59.274;17.974;2023-06-04T03:15:10;0.95;;;0.40;;
71475;SDS011;59286;59.274;17.974;2023-06-04T03:17:36;1.10;;;0.60;;
71475;SDS011;59286;59.274;17.974;2023-06-04T03:20:02;0.55;;;0.40;;
71475;SDS011;59286;59.274;17.974;2023-06-04T03:22:29;0.40;;;0.40;;
71475;SDS011;59286;59.274;17.974;2023-06-04T03:24:55;1.73;;;0.40;;
71475;SDS011;59286;59.274;17.974;2023-06-04T03:27:20;1.25;;;0.47;;
71475;SDS011;59286;59.274;17.974;2023-06-04T03:29:45;0.98;;;0.40;;
71475;SDS011;59286;59.274;17.974;2023-06-04T03:32:11;0.90;;;0.38;;
71475;SDS011;59286;59.274;17.974;2023-06-04T03:34:37;0.90;;;0.40;;
71475;SDS011;59286;59.274;17.974;2023-06-04T03:37:03;2.88;;;0.47;;
71475;SDS011;59286;59.274;17.974;2023-06-04T03:39:28;0.80;;;0.43;;
71475;SDS011;59286;59.274;17.974;2023-06-04T03:41:54;0.82;;;0.40;;
71475;SDS011;59286;59.274;17.974;2023-06-04T03:44:21;0.75;;;0.30;;
71475;SDS011;59286;59.274;17.974;2023-06-04T03:46:46;0.73;;;0.40;;
71475;SDS011;59286;59.274;17.974;2023-06-04T03:49:12;2.45;;;0.30;;
71475;SDS011;59286;59.274;17.974;2023-06-04T03:51:38;1.58;;;0.55;;
71475;SDS011;59286;59.274;17.974;2023-06-04T03:54:04;1.20;;;0.40;;
71475;SDS011;59286;59.274;17.974;2023-06-04T03:56:30;1.05;;;0.40;;
71475;SDS011;59286;59.274;17.974;2023-06-04T03:58:56;1.40;;;0.65;;
71475;SDS011;59286;59.274;17.974;2023-06-04T04:01:21;4.97;;;0.63;;
71475;SDS011;59286;59.274;17.974;2023-06-04T04:03:48;1.10;;;0.47;;
71475;SDS011;59286;59.274;17.974;2023-06-04T04:06:14;0.68;;;0.47;;
71475;SDS011;59286;59.274;17.974;2023-06-04T04:08:40;0.60;;;0.52;;
71475;SDS011;59286;59.274;17.974;2023-06-04T04:11:12;1.00;;;0.52;;
71475;SDS011;59286;59.274;17.974;2023-06-04T04:13:41;0.65;;;0.35;;
71475;SDS011;59286;59.274;17.974;2023-06-04T04:16:06;1.95;;;0.50;;
71475;SDS011;59286;59.274;17.974;2023-06-04T04:18:32;0.68;;;0.60;;
71475;SDS011;59286;59.274;17.974;2023-06-04T04:20:59;1.20;;;0.60;;
71475;SDS011;59286;59.274;17.974;2023-06-04T04:23:24;0.70;;;0.50;;
71475;SDS011;59286;59.274;17.974;2023-06-04T04:25:50;3.55;;;0.73;;
71475;SDS011;59286;59.274;17.974;2023-06-04T04:28:15;0.77;;;0.50;;
71475;SDS011;59286;59.274;17.974;2023-06-04T04:30:42;0.45;;;0.40;;
71475;SDS011;59286;59.274;17.974;2023-06-04T04:33:09;0.70;;;0.50;;
71475;SDS011;59286;59.274;17.974;2023-06-04T04:35:35;0.77;;;0.60;;
71475;SDS011;59286;59.274;17.974;2023-06-04T04:38:01;0.38;;;0.30;;
71475;SDS011;59286;59.274;17.974;2023-06-04T04:40:30;0.57;;;0.43;;
71475;SDS011;59286;59.274;17.974;2023-06-04T04:42:56;1.17;;;0.32;;
71475;SDS011;59286;59.274;17.974;2023-06-04T04:45:23;0.30;;;0.30;;
71475;SDS011;59286;59.274;17.974;2023-06-04T04:47:48;2.28;;;0.50;;
71475;SDS011;59286;59.274;17.974;2023-06-04T04:50:15;0.80;;;0.30;;
71475;SDS011;59286;59.274;17.974;2023-06-04T04:52:41;0.60;;;0.30;;
71475;SDS011;59286;59.274;17.974;2023-06-04T04:55:06;1.38;;;0.35;;
71475;SDS011;59286;59.274;17.974;2023-06-04T04:57:32;0.40;;;0.30;;
71475;SDS011;59286;59.274;17.974;2023-06-04T04:59:58;0.30;;;0.20;;
71475;SDS011;59286;59.274;17.974;2023-06-04T05:02:23;0.52;;;0.35;;
71475;SDS011;59286;59.274;17.974;2023-06-04T05:04:48;0.30;;;0.20;;
71475;SDS011;59286;59.274;17.974;2023-06-04T05:07:14;2.17;;;0.25;;
71475;SDS011;59286;59.274;17.974;2023-06-04T05:09:40;1.00;;;0.30;;
71475;SDS011;59286;59.274;17.974;2023-06-04T05:12:05;1.10;;;0.40;;
71475;SDS011;59286;59.274;17.974;2023-06-04T05:14:31;0.40;;;0.22;;
71475;SDS011;59286;59.274;17.974;2023-06-04T05:16:57;1.08;;;0.35;;
71475;SDS011;59286;59.274;17.974;2023-06-04T05:19:22;1.63;;;0.30;;
71475;SDS011;59286;59.274;17.974;2023-06-04T05:21:49;1.00;;;0.28;;
71475;SDS011;59286;59.274;17.974;2023-06-04T05:24:15;0.85;;;0.40;;
71475;SDS011;59286;59.274;17.974;2023-06-04T05:26:40;2.08;;;0.40;;
71475;SDS011;59286;59.274;17.974;2023-06-04T05:29:06;0.60;;;0.40;;
71475;SDS011;59286;59.274;17.974;2023-06-04T05:31:32;1.13;;;0.20;;
71475;SDS011;59286;59.274;17.974;2023-06-04T05:33:58;0.30;;;0.20;;
71475;SDS011;59286;59.274;17.974;2023-06-04T05:36:26;0.75;;;0.20;;
71475;SDS011;59286;59.274;17.974;2023-06-04T05:38:52;0.30;;;0.20;;
71475;SDS011;59286;59.274;17.974;2023-06-04T05:41:22;0.20;;;0.20;;
71475;SDS011;59286;59.274;17.974;2023-06-04T05:43:48;1.15;;;0.22;;
71475;SDS011;59286;59.274;17.974;2023-06-04T05:46:14;1.58;;;0.38;;
71475;SDS011;59286;59.274;17.974;2023-06-04T05:48:39;0.52;;;0.30;;
71475;SDS011;59286;59.274;17.974;2023-06-04T05:51:05;0.80;;;0.25;;
71475;SDS011;59286;59.274;17.974;2023-06-04T05:53:30;0.88;;;0.20;;
71475;SDS011;59286;59.274;17.974;2023-06-04T05:55:56;0.68;;;0.30;;
71475;SDS011;59286;59.274;17.974;2023-06-04T05:58:21;1.00;;;0.20;;
71475;SDS011;59286;59.274;17.974;2023-06-04T06:00:46;2.00;;;0.63;;
71475;SDS011;59286;59.274;17.974;2023-06-04T06:03:13;0.17;;;0.17;;
71475;SDS011;59286;59.274;17.974;2023-06-04T06:05:41;1.13;;;0.30;;
71475;SDS011;59286;59.274;17.974;2023-06-04T06:08:07;0.95;;;0.30;;
71475;SDS011;59286;59.274;17.974;2023-06-04T06:10:33;0.50;;;0.30;;
71475;SDS011;59286;59.274;17.974;2023-06-04T06:12:58;0.40;;;0.20;;
71475;SDS011;59286;59.274;17.974;2023-06-04T06:15:25;0.38;;;0.20;;
71475;SDS011;59286;59.274;17.974;2023-06-04T06:17:51;0.45;;;0.20;;
71475;SDS011;59286;59.274;17.974;2023-06-04T06:20:17;0.40;;;0.10;;
71475;SDS011;59286;59.274;17.974;2023-06-04T06:22:43;0.52;;;0.20;;
71475;SDS011;59286;59.274;17.974;2023-06-04T06:25:08;1.80;;;0.28;;
71475;SDS011;59286;59.274;17.974;2023-06-04T06:27:34;2.80;;;0.20;;
71475;SDS011;59286;59.274;17.974;2023-06-04T06:30:00;0.22;;;0.20;;
71475;SDS011;59286;59.274;17.974;2023-06-04T06:32:25;1.00;;;0.30;;
71475;SDS011;59286;59.274;17.974;2023-06-04T06:34:52;0.13;;;0.13;;
71475;SDS011;59286;59.274;17.974;2023-06-04T06:37:17;0.50;;;0.20;;
71475;SDS011;59286;59.274;17.974;2023-06-04T06:39:43;0.70;;;0.20;;
71475;SDS011;59286;59.274;17.974;2023-06-04T06:42:08;0.50;;;0.20;;
71475;SDS011;59286;59.274;17.974;2023-06-04T06:44:33;0.13;;;0.00;;
71475;SDS011;59286;59.274;17.974;2023-06-04T06:46:59;1.05;;;0.30;;
71475;SDS011;59286;59.274;17.974;2023-06-04T06:49:24;0.65;;;0.10;;
71475;SDS011;59286;59.274;17.974;2023-06-04T06:51:50;0.28;;;0.20;;
71475;SDS011;59286;59.274;17.974;2023-06-04T06:54:16;1.48;;;0.13;;
71475;SDS011;59286;59.274;17.974;2023-06-04T06:56:41;0.47;;;0.10;;
71475;SDS011;59286;59.274;17.974;2023-06-04T06:59:07;0.63;;;0.20;;
71475;SDS011;59286;59.274;17.974;2023-06-04T07:01:32;2.72;;;0.20;;
71475;SDS011;59286;59.274;17.974;2023-06-04T07:03:58;2.15;;;0.10;;
71475;SDS011;59286;59.274;17.974;2023-06-04T07:06:24;1.38;;;0.20;;
71475;SDS011;59286;59.274;17.974;2023-06-04T07:08:49;0.77;;;0.20;;
71475;SDS011;59286;59.274;17.974;2023-06-04T07:11:15;0.43;;;0.20;;
71475;SDS011;59286;59.274;17.974;2023-06-04T07:13:41;0.73;;;0.20;;
71475;SDS011;59286;59.274;17.974;2023-06-04T07:16:07;0.28;;;0.10;;
71475;SDS011;59286;59.274;17.974;2023-06-04T07:18:32;0.35;;;0.20;;
71475;SDS011;59286;59.274;17.974;2023-06-04T07:20:58;0.10;;;0.10;;
71475;SDS011;59286;59.274;17.974;2023-06-04T07:23:23;0.55;;;0.15;;
71475;SDS011;59286;59.274;17.974;2023-06-04T07:25:49;1.23;;;0.10;;
71475;SDS011;59286;59.274;17.974;2023-06-04T07:28:14;0.68;;;0.20;;
71475;SDS011;59286;59.274;17.974;2023-06-04T07:30:40;0.77;;;0.20;;
71475;SDS011;59286;59.274;17.974;2023-06-04T07:33:06;0.82;;;0.20;;
71475;SDS011;59286;59.274;17.974;2023-06-04T07:35:31;0.25;;;0.10;;
71475;SDS011;59286;59.274;17.974;2023-06-04T07:37:57;0.57;;;0.10;;
71475;SDS011;59286;59.274;17.974;2023-06-04T07:40:22;0.10;;;0.10;;
71475;SDS011;59286;59.274;17.974;2023-06-04T07:42:48;0.30;;;0.08;;
71475;SDS011;59286;59.274;17.974;2023-06-04T07:45:13;0.30;;;0.10;;
71475;SDS011;59286;59.274;17.974;2023-06-04T07:47:40;0.85;;;0.10;;
71475;SDS011;59286;59.274;17.974;2023-06-04T07:50:06;0.30;;;0.10;;
71475;SDS011;59286;59.274;17.974;2023-06-04T07:52:32;0.63;;;0.40;;
71475;SDS011;59286;59.274;17.974;2023-06-04T07:54:57;0.63;;;0.20;;
71475;SDS011;59286;59.274;17.974;2023-06-04T07:57:24;1.90;;;0.13;;
71475;SDS011;59286;59.274;17.974;2023-06-04T07:59:50;0.55;;;0.10;;
71475;SDS011;59286;59.274;17.974;2023-06-04T08:02:16;0.75;;;0.20;;
71475;SDS011;59286;59.274;17.974;2023-06-04T08:04:42;0.40;;;0.13;;
71475;SDS011;59286;59.274;17.974;2023-06-04T08:07:07;0.10;;;0.10;;
71475;SDS011;59286;59.274;17.974;2023-06-04T08:09:33;0.35;;;0.20;;
71475;SDS011;59286;59.274;17.974;2023-06-04T08:11:59;0.28;;;0.10;;
71475;SDS011;59286;59.274;17.974;2023-06-04T08:14:25;0.10;;;0.10;;
71475;SDS011;59286;59.274;17.974;2023-06-04T08:16:52;0.30;;;0.10;;
71475;SDS011;59286;59.274;17.974;2023-06-04T08:19:18;0.35;;;0.10;;
71475;SDS011;59286;59.274;17.974;2023-06-04T08:21:43;1.42;;;0.60;;
71475;SDS011;59286;59.274;17.974;2023-06-04T08:24:10;0.10;;;0.10;;
71475;SDS011;59286;59.274;17.974;2023-06-04T08:26:35;1.40;;;0.20;;
71475;SDS011;59286;59.274;17.974;2023-06-04T08:29:02;1.25;;;0.13;;
71475;SDS011;59286;59.274;17.974;2023-06-04T08:31:29;2.17;;;0.13;;
71475;SDS011;59286;59.274;17.974;2023-06-04T08:33:54;0.55;;;0.20;;
71475;SDS011;59286;59.274;17.974;2023-06-04T08:36:20;0.63;;;0.20;;
71475;SDS011;59286;59.274;17.974;2023-06-04T08:38:45;0.10;;;0.10;;
71475;SDS011;59286;59.274;17.974;2023-06-04T08:41:24;1.75;;;0.10;;
71475;SDS011;59286;59.274;17.974;2023-06-04T08:43:56;1.63;;;0.20;;
71475;SDS011;59286;59.274;17.974;2023-06-04T08:46:23;0.15;;;0.10;;
71475;SDS011;59286;59.274;17.974;2023-06-04T08:48:49;0.40;;;0.25;;
71475;SDS011;59286;59.274;17.974;2023-06-04T08:51:15;1.75;;;0.10;;
71475;SDS011;59286;59.274;17.974;2023-06-04T08:53:41;0.50;;;0.20;;
71475;SDS011;59286;59.274;17.974;2023-06-04T08:56:07;0.17;;;0.17;;
71475;SDS011;59286;59.274;17.974;2023-06-04T08:58:33;1.48;;;0.10;;
71475;SDS011;59286;59.274;17.974;2023-06-04T09:01:01;1.50;;;0.20;;
71475;SDS011;59286;59.274;17.974;2023-06-04T09:03:28;2.30;;;0.28;;
71475;SDS011;59286;59.274;17.974;2023-06-04T09:05:58;0.57;;;0.20;;
71475;SDS011;59286;59.274;17.974;2023-06-04T09:08:24;0.28;;;0.20;;
71475;SDS011;59286;59.274;17.974;2023-06-04T09:10:51;0.73;;;0.20;;
71475;SDS011;59286;59.274;17.974;2023-06-04T09:13:19;0.98;;;0.17;;
71475;SDS011;59286;59.274;17.974;2023-06-04T09:16:03;0.88;;;0.20;;
71475;SDS011;59286;59.274;17.974;2023-06-04T09:18:30;0.43;;;0.13;;
71475;SDS011;59286;59.274;17.974;2023-06-04T09:23:29;0.30;;;0.20;;
71475;SDS011;59286;59.274;17.974;2023-06-04T09:25:55;0.22;;;0.20;;
71475;SDS011;59286;59.274;17.974;2023-06-04T09:28:20;0.38;;;0.15;;
71475;SDS011;59286;59.274;17.974;2023-06-04T09:30:52;1.77;;;0.22;;
71475;SDS011;59286;59.274;17.974;2023-06-04T09:33:18;1.05;;;0.22;;
71475;SDS011;59286;59.274;17.974;2023-06-04T09:35:58;1.27;;;0.30;;
71475;SDS011;59286;59.274;17.974;2023-06-04T09:38:32;0.40;;;0.20;;
71475;SDS011;59286;59.274;17.974;2023-06-04T09:40:59;0.30;;;0.20;;
71475;SDS011;59286;59.274;17.974;2023-06-04T09:43:25;0.22;;;0.20;;
71475;SDS011;59286;59.274;17.974;2023-06-04T09:45:51;2.17;;;0.30;;
71475;SDS011;59286;59.274;17.974;2023-06-04T09:48:20;0.20;;;0.20;;
71475;SDS011;59286;59.274;17.974;2023-06-04T09:50:46;0.30;;;0.17;;
71475;SDS011;59286;59.274;17.974;2023-06-04T09:53:17;1.83;;;0.30;;
71475;SDS011;59286;59.274;17.974;2023-06-04T09:55:55;0.28;;;0.20;;
71475;SDS011;59286;59.274;17.974;2023-06-04T09:58:21;0.20;;;0.20;;
71475;SDS011;59286;59.274;17.974;2023-06-04T10:00:50;0.80;;;0.20;;
71475;SDS011;59286;59.274;17.974;2023-06-04T10:03:17;0.50;;;0.30;;
71475;SDS011;59286;59.274;17.974;2023-06-04T10:05:48;1.42;;;0.40;;
71475;SDS011;59286;59.274;17.974;2023-06-04T10:08:14;1.17;;;0.25;;
71475;SDS011;59286;59.274;17.974;2023-06-04T10:10:42;1.63;;;0.35;;
71475;SDS011;59286;59.274;17.974;2023-06-04T10:13:16;0.30;;;0.20;;
71475;SDS011;59286;59.274;17.974;2023-06-04T10:15:42;0.60;;;0.20;;
71475;SDS011;59286;59.274;17.974;2023-06-04T10:18:08;0.68;;;0.30;;
71475;SDS011;59286;59.274;17.974;2023-06-04T10:20:35;0.80;;;0.20;;
71475;SDS011;59286;59.274;17.974;2023-06-04T10:23:00;0.25;;;0.15;;
71475;SDS011;59286;59.274;17.974;2023-06-04T10:25:29;0.47;;;0.20;;
71475;SDS011;59286;59.274;17.974;2023-06-04T10:27:55;0.30;;;0.20;;
71475;SDS011;59286;59.274;17.974;2023-06-04T10:30:21;1.27;;;0.20;;
71475;SDS011;59286;59.274;17.974;2023-06-04T10:32:46;0.20;;;0.20;;
71475;SDS011;59286;59.274;17.974;2023-06-04T10:35:11;0.25;;;0.25;;
71475;SDS011;59286;59.274;17.974;2023-06-04T10:37:37;0.73;;;0.40;;
71475;SDS011;59286;59.274;17.974;2023-06-04T10:40:02;0.90;;;0.20;;
71475;SDS011;59286;59.274;17.974;2023-06-04T10:42:41;0.50;;;0.20;;
71475;SDS011;59286;59.274;17.974;2023-06-04T10:45:08;0.52;;;0.17;;
71475;SDS011;59286;59.274;17.974;2023-06-04T10:47:37;0.63;;;0.30;;
71475;SDS011;59286;59.274;17.974;2023-06-04T10:50:12;1.65;;;0.28;;
71475;SDS011;59286;59.274;17.974;2023-06-04T10:52:39;2.20;;;0.30;;
71475;SDS011;59286;59.274;17.974;2023-06-04T10:55:16;0.32;;;0.20;;
71475;SDS011;59286;59.274;17.974;2023-06-04T10:57:50;0.55;;;0.20;;
71475;SDS011;59286;59.274;17.974;2023-06-04T11:00:19;0.20;;;0.10;;
71475;SDS011;59286;59.274;17.974;2023-06-04T11:02:51;0.20;;;0.20;;
71475;SDS011;59286;59.274;17.974;2023-06-04T11:05:20;0.30;;;0.22;;
71475;SDS011;59286;59.274;17.974;2023-06-04T11:07:46;0.98;;;0.28;;
71475;SDS011;59286;59.274;17.974;2023-06-04T11:10:15;0.55;;;0.22;;
71475;SDS011;59286;59.274;17.974;2023-06-04T11:12:45;1.30;;;0.38;;
71475;SDS011;59286;59.274;17.974;2023-06-04T11:15:17;0.43;;;0.30;;
71475;SDS011;59286;59.274;17.974;2023-06-04T11:17:54;0.30;;;0.20;;
71475;SDS011;59286;59.274;17.974;2023-06-04T11:20:23;0.25;;;0.20;;
71475;SDS011;59286;59.274;17.974;2023-06-04T11:22:53;1.25;;;0.20;;
71475;SDS011;59286;59.274;17.974;2023-06-04T11:25:26;0.20;;;0.20;;
71475;SDS011;59286;59.274;17.974;2023-06-04T11:27:53;1.15;;;0.10;;
71475;SDS011;59286;59.274;17.974;2023-06-04T11:30:20;0.45;;;0.20;;
71475;SDS011;59286;59.274;17.974;2023-06-04T11:32:46;0.32;;;0.10;;
71475;SDS011;59286;59.274;17.974;2023-06-04T11:35:12;0.80;;;0.28;;
71475;SDS011;59286;59.274;17.974;2023-06-04T11:37:37;0.52;;;0.20;;
71475;SDS011;59286;59.274;17.974;2023-06-04T11:40:16;0.55;;;0.20;;
71475;SDS011;59286;59.274;17.974;2023-06-04T11:42:43;0.30;;;0.20;;
71475;SDS011;59286;59.274;17.974;2023-06-04T11:45:13;0.22;;;0.20;;
71475;SDS011;59286;59.274;17.974;2023-06-04T11:47:52;1.35;;;0.30;;
71475;SDS011;59286;59.274;17.974;2023-06-04T11:50:19;1.45;;;0.20;;
71475;SDS011;59286;59.274;17.974;2023-06-04T11:52:45;1.02;;;0.30;;
71475;SDS011;59286;59.274;17.974;2023-06-04T11:55:12;0.82;;;0.30;;
71475;SDS011;59286;59.274;17.974;2023-06-04T11:57:38;0.28;;;0.28;;
71475;SDS011;59286;59.274;17.974;2023-06-04T12:00:05;1.38;;;0.20;;
71475;SDS011;59286;59.274;17.974;2023-06-04T12:02:38;1.90;;;0.28;;
71475;SDS011;59286;59.274;17.974;2023-06-04T12:05:15;0.70;;;0.20;;
71475;SDS011;59286;59.274;17.974;2023-06-04T12:07:45;1.02;;;0.40;;
71475;SDS011;59286;59.274;17.974;2023-06-04T12:10:12;0.25;;;0.20;;
71475;SDS011;59286;59.274;17.974;2023-06-04T12:12:38;0.30;;;0.30;;
71475;SDS011;59286;59.274;17.974;2023-06-04T12:15:05;1.02;;;0.30;;
71475;SDS011;59286;59.274;17.974;2023-06-04T12:17:32;0.57;;;0.22;;
71475;SDS011;59286;59.274;17.974;2023-06-04T12:19:58;0.68;;;0.40;;
71475;SDS011;59286;59.274;17.974;2023-06-04T12:22:24;0.20;;;0.20;;
71475;SDS011;59286;59.274;17.974;2023-06-04T12:24:51;0.20;;;0.20;;
71475;SDS011;59286;59.274;17.974;2023-06-04T12:27:19;0.57;;;0.38;;
71475;SDS011;59286;59.274;17.974;2023-06-04T12:32:20;0.65;;;0.28;;
71475;SDS011;59286;59.274;17.974;2023-06-04T12:34:46;0.68;;;0.20;;
71475;SDS011;59286;59.274;17.974;2023-06-04T12:37:11;1.30;;;0.20;;
71475;SDS011;59286;59.274;17.974;2023-06-04T12:39:36;0.45;;;0.30;;
71475;SDS011;59286;59.274;17.974;2023-06-04T12:42:05;1.95;;;0.30;;
71475;SDS011;59286;59.274;17.974;2023-06-04T12:44:31;0.82;;;0.22;;
71475;SDS011;59286;59.274;17.974;2023-06-04T12:46:57;0.47;;;0.10;;
71475;SDS011;59286;59.274;17.974;2023-06-04T12:49:23;0.38;;;0.30;;
71475;SDS011;59286;59.274;17.974;2023-06-04T12:51:48;1.58;;;0.20;;
71475;SDS011;59286;59.274;17.974;2023-06-04T12:54:14;0.13;;;0.10;;
71475;SDS011;59286;59.274;17.974;2023-06-04T12:56:40;0.50;;;0.20;;
71475;SDS011;59286;59.274;17.974;2023-06-04T12:59:06;0.75;;;0.20;;
71475;SDS011;59286;59.274;17.974;2023-06-04T13:01:32;0.32;;;0.20;;
71475;SDS011;59286;59.274;17.974;2023-06-04T13:03:57;0.50;;;0.38;;
71475;SDS011;59286;59.274;17.974;2023-06-04T13:06:22;0.13;;;0.10;;
71475;SDS011;59286;59.274;17.974;2023-06-04T13:08:48;0.10;;;0.10;;
71475;SDS011;59286;59.274;17.974;2023-06-04T13:11:13;0.20;;;0.20;;
71475;SDS011;59286;59.274;17.974;2023-06-04T13:13:38;0.13;;;0.10;;
71475;SDS011;59286;59.274;17.974;2023-06-04T13:16:04;0.52;;;0.20;;
71475;SDS011;59286;59.274;17.974;2023-06-04T13:18:29;0.22;;;0.13;;
71475;SDS011;59286;59.274;17.974;2023-06-04T13:20:55;0.25;;;0.10;;
71475;SDS011;59286;59.274;17.974;2023-06-04T13:23:21;0.80;;;0.20;;
71475;SDS011;59286;59.274;17.974;2023-06-04T13:25:46;1.27;;;0.30;;
71475;SDS011;59286;59.274;17.974;2023-06-04T13:28:12;0.70;;;0.30;;
71475;SDS011;59286;59.274;17.974;2023-06-04T13:30:37;1.20;;;0.20;;
71475;SDS011;59286;59.274;17.974;2023-06-04T13:33:03;2.17;;;0.20;;
71475;SDS011;59286;59.274;17.974;2023-06-04T13:35:30;1.00;;;0.20;;
71475;SDS011;59286;59.274;17.974;2023-06-04T13:37:55;0.77;;;0.20;;
71475;SDS011;59286;59.274;17.974;2023-06-04T13:40:20;0.98;;;0.30;;
71475;SDS011;59286;59.274;17.974;2023-06-04T13:42:46;1.63;;;0.30;;
71475;SDS011;59286;59.274;17.974;2023-06-04T13:45:11;1.27;;;0.25;;
71475;SDS011;59286;59.274;17.974;2023-06-04T13:47:37;0.45;;;0.15;;
71475;SDS011;59286;59.274;17.974;2023-06-04T13:50:02;1.42;;;0.28;;
71475;SDS011;59286;59.274;17.974;2023-06-04T13:52:28;1.85;;;0.10;;
71475;SDS011;59286;59.274;17.974;2023-06-04T13:54:54;2.08;;;0.30;;
71475;SDS011;59286;59.274;17.974;2023-06-04T13:57:20;0.10;;;0.10;;
71475;SDS011;59286;59.274;17.974;2023-06-04T13:59:46;1.27;;;0.20;;
71475;SDS011;59286;59.274;17.974;2023-06-04T14:02:11;0.20;;;0.20;;
71475;SDS011;59286;59.274;17.974;2023-06-04T14:04:37;0.22;;;0.15;;
71475;SDS011;59286;59.274;17.974;2023-06-04T14:07:02;2.15;;;0.20;;
71475;SDS011;59286;59.274;17.974;2023-06-04T14:09:27;1.83;;;0.30;;
71475;SDS011;59286;59.274;17.974;2023-06-04T14:11:53;0.40;;;0.22;;
71475;SDS011;59286;59.274;17.974;2023-06-04T14:14:22;0.38;;;0.20;;
71475;SDS011;59286;59.274;17.974;2023-06-04T14:16:47;1.13;;;0.17;;
71475;SDS011;59286;59.274;17.974;2023-06-04T14:19:13;1.55;;;0.20;;
71475;SDS011;59286;59.274;17.974;2023-06-04T14:21:40;0.63;;;0.15;;
71475;SDS011;59286;59.274;17.974;2023-06-04T14:24:06;2.70;;;0.20;;
71475;SDS011;59286;59.274;17.974;2023-06-04T14:26:31;0.30;;;0.20;;
71475;SDS011;59286;59.274;17.974;2023-06-04T14:28:57;0.63;;;0.38;;
71475;SDS011;59286;59.274;17.974;2023-06-04T14:31:22;0.60;;;0.20;;
71475;SDS011;59286;59.274;17.974;2023-06-04T14:33:48;0.20;;;0.20;;
71475;SDS011;59286;59.274;17.974;2023-06-04T14:36:13;0.47;;;0.20;;
71475;SDS011;59286;59.274;17.974;2023-06-04T14:38:39;0.20;;;0.17;;
71475;SDS011;59286;59.274;17.974;2023-06-04T14:41:04;0.70;;;0.30;;
71475;SDS011;59286;59.274;17.974;2023-06-04T14:43:30;0.10;;;0.10;;